EWG18V LEPA-EDDR
Flight info
| Callsign | EWG18V |
|---|---|
| Flight time | N/A |
| Altitude | 36000 |
| Route | MEROS N853 LUMAS DCT MAXIR UN853 IRMAR DCT KINES DCT VANAS DCT MOBLO DCT UBIMA DCT GILIR/N0427F300 DCT PENDU DCT IXILU DCT EPL G21 MAKOT |
| Aircraft | A320/M-SDE3FGHIRWY/LB1 |
Departure
| Time | N/A |
|---|---|
| Airport | Palma de Mallorca Airport (LEPA) |
Arrival
| Time | 2026-04-25 16:15 |
|---|---|
| Airport | Saarbrücken Airport (EDDR) |
| Time | Latitude | Longitude | Altitude | Speed | Heading |
|---|---|---|---|---|---|
| 2026-04-25 15:54 | 48.13676 | 6.05385 | 31644 ft | 407 kts | 358° |
| 2026-04-25 15:54 | 48.16494 | 6.05471 | 31139 ft | 404 kts | 358° |
| 2026-04-25 15:54 | 48.19894 | 6.05575 | 30542 ft | 400 kts | 358° |
| 2026-04-25 15:54 | 48.22666 | 6.05663 | 30026 ft | 397 kts | 358° |
| 2026-04-25 15:55 | 48.25415 | 6.05750 | 29525 ft | 393 kts | 358° |
| 2026-04-25 15:55 | 48.28098 | 6.05848 | 29052 ft | 389 kts | 0° |
| 2026-04-25 15:55 | 48.30769 | 6.06427 | 28576 ft | 388 kts | 11° |
| 2026-04-25 15:55 | 48.33325 | 6.07728 | 28105 ft | 389 kts | 21° |
| 2026-04-25 15:56 | 48.35691 | 6.09702 | 27642 ft | 389 kts | 29° |
| 2026-04-25 15:56 | 48.37958 | 6.11899 | 27184 ft | 386 kts | 29° |
| 2026-04-25 15:56 | 48.40203 | 6.14075 | 26743 ft | 383 kts | 29° |
| 2026-04-25 15:56 | 48.42432 | 6.16241 | 26297 ft | 380 kts | 29° |
| 2026-04-25 15:57 | 48.44641 | 6.18393 | 25856 ft | 377 kts | 29° |
| 2026-04-25 15:57 | 48.46809 | 6.20508 | 25415 ft | 375 kts | 29° |
| 2026-04-25 15:57 | 48.48989 | 6.22633 | 24967 ft | 373 kts | 28° |
| 2026-04-25 15:57 | 48.51162 | 6.24751 | 24513 ft | 371 kts | 28° |
| 2026-04-25 15:58 | 48.53320 | 6.26862 | 24061 ft | 369 kts | 29° |
| 2026-04-25 15:58 | 48.55472 | 6.28967 | 23582 ft | 368 kts | 29° |
| 2026-04-25 15:58 | 48.57613 | 6.31064 | 23076 ft | 366 kts | 29° |
| 2026-04-25 15:58 | 48.59739 | 6.33148 | 22617 ft | 363 kts | 29° |
| 2026-04-25 15:59 | 48.61844 | 6.35217 | 22160 ft | 360 kts | 29° |
| 2026-04-25 15:59 | 48.63940 | 6.37275 | 21703 ft | 358 kts | 29° |
| 2026-04-25 15:59 | 48.65992 | 6.39293 | 21252 ft | 356 kts | 29° |
| 2026-04-25 15:59 | 48.68043 | 6.41371 | 20803 ft | 354 kts | 30° |
| 2026-04-25 16:00 | 48.70065 | 6.43489 | 20367 ft | 353 kts | 31° |
| 2026-04-25 16:00 | 48.70745 | 6.44201 | 20220 ft | 352 kts | 30° |
| 2026-04-25 16:00 | 48.74114 | 6.47591 | 19497 ft | 348 kts | 29° |
| 2026-04-25 16:00 | 48.76147 | 6.49572 | 19067 ft | 347 kts | 28° |
| 2026-04-25 16:01 | 48.78180 | 6.51540 | 18637 ft | 346 kts | 28° |
| 2026-04-25 16:01 | 48.80208 | 6.53504 | 18178 ft | 346 kts | 28° |
| 2026-04-25 16:01 | 48.82202 | 6.55445 | 17749 ft | 344 kts | 29° |
| 2026-04-25 16:01 | 48.84203 | 6.57404 | 17323 ft | 342 kts | 29° |
| 2026-04-25 16:02 | 48.86192 | 6.59356 | 16917 ft | 340 kts | 29° |
| 2026-04-25 16:02 | 48.88174 | 6.61304 | 16502 ft | 338 kts | 30° |
| 2026-04-25 16:02 | 48.90149 | 6.63246 | 16089 ft | 337 kts | 30° |
| 2026-04-25 16:02 | 48.92111 | 6.65182 | 15683 ft | 336 kts | 30° |
| 2026-04-25 16:03 | 48.94070 | 6.67118 | 15273 ft | 335 kts | 30° |
| 2026-04-25 16:03 | 48.96020 | 6.69044 | 14868 ft | 334 kts | 31° |
| 2026-04-25 16:03 | 48.97960 | 6.70987 | 14457 ft | 334 kts | 34° |
| 2026-04-25 16:03 | 48.99648 | 6.73338 | 14083 ft | 335 kts | 46° |
| 2026-04-25 16:04 | 49.01193 | 6.76015 | 13526 ft | 338 kts | 47° |
| 2026-04-25 16:04 | 49.02737 | 6.78701 | 13096 ft | 336 kts | 47° |
| 2026-04-25 16:04 | 49.04273 | 6.81376 | 12675 ft | 334 kts | 46° |
| 2026-04-25 16:04 | 49.05800 | 6.84029 | 12260 ft | 332 kts | 46° |
| 2026-04-25 16:05 | 49.07315 | 6.86661 | 11843 ft | 330 kts | 46° |
| 2026-04-25 16:05 | 49.08825 | 6.89281 | 11425 ft | 328 kts | 46° |
| 2026-04-25 16:05 | 49.11820 | 6.94485 | 10585 ft | 325 kts | 46° |
| 2026-04-25 16:06 | 49.13285 | 6.97037 | 10184 ft | 323 kts | 46° |
| 2026-04-25 16:06 | 49.14762 | 6.99611 | 9760 ft | 322 kts | 46° |
| 2026-04-25 16:06 | 49.16211 | 7.02139 | 9586 ft | 310 kts | 46° |
| 2026-04-25 16:06 | 49.17608 | 7.04581 | 9446 ft | 299 kts | 46° |
| 2026-04-25 16:07 | 49.18952 | 7.06937 | 9273 ft | 290 kts | 46° |
| 2026-04-25 16:07 | 49.19399 | 7.07720 | 9187 ft | 288 kts | 46° |
| 2026-04-25 16:07 | 49.21568 | 7.11521 | 8633 ft | 284 kts | 46° |
| 2026-04-25 16:07 | 49.22868 | 7.13790 | 8292 ft | 282 kts | 46° |
| 2026-04-25 16:08 | 49.24159 | 7.16033 | 7922 ft | 280 kts | 46° |
| 2026-04-25 16:08 | 49.25426 | 7.18230 | 7554 ft | 279 kts | 46° |
| 2026-04-25 16:08 | 49.26709 | 7.20439 | 7191 ft | 277 kts | 46° |
| 2026-04-25 16:08 | 49.27981 | 7.22631 | 6789 ft | 273 kts | 48° |
| 2026-04-25 16:09 | 49.28895 | 7.25147 | 6184 ft | 272 kts | 74° |
| 2026-04-25 16:09 | 49.29199 | 7.27997 | 5479 ft | 272 kts | 82° |
| 2026-04-25 16:09 | 49.29382 | 7.30869 | 4868 ft | 268 kts | 84° |
| 2026-04-25 16:09 | 49.29266 | 7.33586 | 4660 ft | 248 kts | 109° |
| 2026-04-25 16:10 | 49.28357 | 7.35697 | 4470 ft | 234 kts | 141° |
| 2026-04-25 16:10 | 49.26940 | 7.36712 | 4157 ft | 227 kts | 171° |
| 2026-04-25 16:10 | 49.25377 | 7.36734 | 3988 ft | 223 kts | 199° |
| 2026-04-25 16:10 | 49.24128 | 7.35577 | 4014 ft | 199 kts | 227° |
| 2026-04-25 16:11 | 49.23260 | 7.34101 | 4009 ft | 178 kts | 233° |
| 2026-04-25 16:11 | 49.22491 | 7.32640 | 3777 ft | 176 kts | 236° |
| 2026-04-25 16:11 | 49.22039 | 7.30912 | 3484 ft | 174 kts | 264° |
| 2026-04-25 16:11 | 49.21974 | 7.29141 | 3258 ft | 160 kts | 270° |
| 2026-04-25 16:12 | 49.21928 | 7.27495 | 3061 ft | 151 kts | 270° |
| 2026-04-25 16:12 | 49.21884 | 7.25939 | 2841 ft | 146 kts | 269° |
| 2026-04-25 16:12 | 49.21840 | 7.24384 | 2652 ft | 145 kts | 270° |
| 2026-04-25 16:12 | 49.21825 | 7.23864 | 2586 ft | 145 kts | 270° |
| 2026-04-25 16:13 | 49.21753 | 7.21291 | 2259 ft | 144 kts | 271° |
| 2026-04-25 16:13 | 49.21710 | 7.19761 | 2079 ft | 144 kts | 270° |
| 2026-04-25 16:13 | 49.21665 | 7.18232 | 1880 ft | 144 kts | 269° |
| 2026-04-25 16:13 | 49.21621 | 7.16702 | 1691 ft | 145 kts | 269° |
| 2026-04-25 16:14 | 49.21579 | 7.15175 | 1508 ft | 142 kts | 268° |
| 2026-04-25 16:14 | 49.21535 | 7.13680 | 1322 ft | 140 kts | 269° |
| 2026-04-25 16:14 | 49.21493 | 7.12221 | 1099 ft | 138 kts | 268° |
| 2026-04-25 16:14 | 49.21452 | 7.10909 | 1049 ft | 90 kts | 267° |
| 2026-04-25 16:15 | 49.21435 | 7.10320 | 1039 ft | 41 kts | 268° |
| 2026-04-25 16:15 | 49.21425 | 7.09915 | 1036 ft | 35 kts | 268° |
| 2026-04-25 16:15 | 49.21477 | 7.09770 | 1035 ft | 16 kts | 25° |
| 2026-04-25 16:15 | 49.21534 | 7.09910 | 1037 ft | 14 kts | 63° |
| 2026-04-25 16:16 | 49.21569 | 7.10037 | 1038 ft | 14 kts | 72° |
| 2026-04-25 16:16 | 49.21583 | 7.10218 | 1040 ft | 19 kts | 88° |
| 2026-04-25 16:16 | 49.21587 | 7.10400 | 1043 ft | 15 kts | 88° |
| 2026-04-25 16:16 | 49.21592 | 7.10563 | 1045 ft | 19 kts | 87° |
| 2026-04-25 16:17 | 49.21599 | 7.10771 | 1048 ft | 18 kts | 87° |
| 2026-04-25 16:17 | 49.21604 | 7.10949 | 1050 ft | 15 kts | 88° |
| 2026-04-25 16:17 | 49.21645 | 7.11118 | 1052 ft | 19 kts | 33° |
| 2026-04-25 16:17 | 49.21766 | 7.11182 | 1054 ft | 15 kts | 40° |
| 2026-04-25 16:18 | 49.21792 | 7.11320 | 1055 ft | 8 kts | 76° |
| 2026-04-25 16:18 | 49.21796 | 7.11346 | 1055 ft | 7 kts | 76° |
| 2026-04-25 16:18 | 49.21832 | 7.11357 | 1056 ft | 3 kts | 346° |
| 2026-04-25 16:18 | 49.21847 | 7.11351 | 1056 ft | 2 kts | 346° |
| 2026-04-25 16:19 | 49.21848 | 7.11350 | 1056 ft | 0 kts | 346° |